sensor_id;sensor_type;location;lat;lon;timestamp;P1;durP1;ratioP1;P2;durP2;ratioP2
18606;SDS011;9433;42.678;23.360;2022-09-29T00:00:42;2.10;;;1.90;;
18606;SDS011;9433;42.678;23.360;2022-09-29T00:03:09;2.30;;;1.70;;
18606;SDS011;9433;42.678;23.360;2022-09-29T00:05:36;1.93;;;1.63;;
18606;SDS011;9433;42.678;23.360;2022-09-29T00:08:03;6.13;;;1.80;;
18606;SDS011;9433;42.678;23.360;2022-09-29T00:10:30;5.07;;;1.90;;
18606;SDS011;9433;42.678;23.360;2022-09-29T00:12:58;2.77;;;1.93;;
18606;SDS011;9433;42.678;23.360;2022-09-29T00:15:24;3.70;;;2.10;;
18606;SDS011;9433;42.678;23.360;2022-09-29T00:17:51;6.13;;;2.43;;
18606;SDS011;9433;42.678;23.360;2022-09-29T00:20:18;5.13;;;2.00;;
18606;SDS011;9433;42.678;23.360;2022-09-29T00:22:48;3.63;;;1.97;;
18606;SDS011;9433;42.678;23.360;2022-09-29T00:25:15;2.57;;;1.80;;
18606;SDS011;9433;42.678;23.360;2022-09-29T00:27:42;3.67;;;2.30;;
18606;SDS011;9433;42.678;23.360;2022-09-29T00:30:11;3.30;;;1.83;;
18606;SDS011;9433;42.678;23.360;2022-09-29T00:32:38;3.10;;;1.97;;
18606;SDS011;9433;42.678;23.360;2022-09-29T00:35:05;5.60;;;2.70;;
18606;SDS011;9433;42.678;23.360;2022-09-29T00:37:33;1.93;;;1.73;;
18606;SDS011;9433;42.678;23.360;2022-09-29T00:40:00;5.27;;;2.30;;
18606;SDS011;9433;42.678;23.360;2022-09-29T00:42:28;5.43;;;2.03;;
18606;SDS011;9433;42.678;23.360;2022-09-29T00:44:58;2.43;;;2.23;;
18606;SDS011;9433;42.678;23.360;2022-09-29T00:47:32;2.77;;;2.03;;
18606;SDS011;9433;42.678;23.360;2022-09-29T00:50:02;2.97;;;1.90;;
18606;SDS011;9433;42.678;23.360;2022-09-29T00:52:32;3.13;;;1.93;;
18606;SDS011;9433;42.678;23.360;2022-09-29T00:55:02;3.27;;;1.67;;
18606;SDS011;9433;42.678;23.360;2022-09-29T00:57:35;5.33;;;2.33;;
18606;SDS011;9433;42.678;23.360;2022-09-29T01:00:06;2.43;;;1.83;;
18606;SDS011;9433;42.678;23.360;2022-09-29T01:02:37;2.80;;;1.90;;
18606;SDS011;9433;42.678;23.360;2022-09-29T01:05:10;2.87;;;2.10;;
18606;SDS011;9433;42.678;23.360;2022-09-29T01:07:40;3.90;;;2.07;;
18606;SDS011;9433;42.678;23.360;2022-09-29T01:10:10;2.30;;;2.10;;
18606;SDS011;9433;42.678;23.360;2022-09-29T01:12:39;2.47;;;1.73;;
18606;SDS011;9433;42.678;23.360;2022-09-29T01:15:07;8.60;;;1.97;;
18606;SDS011;9433;42.678;23.360;2022-09-29T01:17:34;3.60;;;1.67;;
18606;SDS011;9433;42.678;23.360;2022-09-29T01:20:03;2.13;;;1.57;;
18606;SDS011;9433;42.678;23.360;2022-09-29T01:22:56;2.63;;;1.77;;
18606;SDS011;9433;42.678;23.360;2022-09-29T01:29:16;2.17;;;1.57;;
18606;SDS011;9433;42.678;23.360;2022-09-29T01:32:05;2.40;;;1.77;;
18606;SDS011;9433;42.678;23.360;2022-09-29T01:34:39;1.20;;;1.10;;
18606;SDS011;9433;42.678;23.360;2022-09-29T01:37:13;2.60;;;1.77;;
18606;SDS011;9433;42.678;23.360;2022-09-29T01:39:48;4.17;;;2.20;;
18606;SDS011;9433;42.678;23.360;2022-09-29T01:42:21;5.57;;;1.70;;
18606;SDS011;9433;42.678;23.360;2022-09-29T01:44:53;2.03;;;1.57;;
18606;SDS011;9433;42.678;23.360;2022-09-29T01:47:27;1.53;;;1.43;;
18606;SDS011;9433;42.678;23.360;2022-09-29T01:50:01;1.97;;;1.50;;
18606;SDS011;9433;42.678;23.360;2022-09-29T01:52:32;5.93;;;2.00;;
18606;SDS011;9433;42.678;23.360;2022-09-29T01:55:04;4.20;;;2.03;;
18606;SDS011;9433;42.678;23.360;2022-09-29T01:57:35;1.70;;;1.60;;
18606;SDS011;9433;42.678;23.360;2022-09-29T02:00:05;1.97;;;1.77;;
18606;SDS011;9433;42.678;23.360;2022-09-29T02:02:38;2.97;;;1.93;;
18606;SDS011;9433;42.678;23.360;2022-09-29T02:05:10;2.20;;;2.00;;
18606;SDS011;9433;42.678;23.360;2022-09-29T02:07:43;3.50;;;1.60;;
18606;SDS011;9433;42.678;23.360;2022-09-29T02:10:12;2.17;;;1.73;;
18606;SDS011;9433;42.678;23.360;2022-09-29T02:12:43;3.03;;;1.93;;
18606;SDS011;9433;42.678;23.360;2022-09-29T02:15:13;3.83;;;2.23;;
18606;SDS011;9433;42.678;23.360;2022-09-29T02:17:46;1.90;;;1.33;;
18606;SDS011;9433;42.678;23.360;2022-09-29T02:20:16;2.73;;;1.63;;
18606;SDS011;9433;42.678;23.360;2022-09-29T02:22:43;2.07;;;1.37;;
18606;SDS011;9433;42.678;23.360;2022-09-29T02:25:10;5.23;;;2.10;;
18606;SDS011;9433;42.678;23.360;2022-09-29T02:27:40;2.10;;;1.53;;
18606;SDS011;9433;42.678;23.360;2022-09-29T02:30:08;3.03;;;1.83;;
18606;SDS011;9433;42.678;23.360;2022-09-29T02:32:36;2.17;;;1.97;;
18606;SDS011;9433;42.678;23.360;2022-09-29T02:35:05;1.73;;;1.60;;
18606;SDS011;9433;42.678;23.360;2022-09-29T02:37:40;2.67;;;1.60;;
18606;SDS011;9433;42.678;23.360;2022-09-29T02:40:26;2.53;;;2.33;;
18606;SDS011;9433;42.678;23.360;2022-09-29T02:43:07;4.03;;;2.60;;
18606;SDS011;9433;42.678;23.360;2022-09-29T02:45:59;3.40;;;2.53;;
18606;SDS011;9433;42.678;23.360;2022-09-29T02:48:54;6.67;;;2.93;;
18606;SDS011;9433;42.678;23.360;2022-09-29T02:51:35;3.20;;;2.50;;
18606;SDS011;9433;42.678;23.360;2022-09-29T02:57:05;4.40;;;2.60;;
18606;SDS011;9433;42.678;23.360;2022-09-29T02:59:41;5.83;;;3.17;;
18606;SDS011;9433;42.678;23.360;2022-09-29T03:02:15;2.93;;;2.50;;
18606;SDS011;9433;42.678;23.360;2022-09-29T03:04:49;5.47;;;3.20;;
18606;SDS011;9433;42.678;23.360;2022-09-29T03:07:17;7.37;;;2.53;;
18606;SDS011;9433;42.678;23.360;2022-09-29T03:09:44;2.83;;;2.10;;
18606;SDS011;9433;42.678;23.360;2022-09-29T03:12:11;3.67;;;2.53;;
18606;SDS011;9433;42.678;23.360;2022-09-29T03:14:38;3.23;;;2.40;;
18606;SDS011;9433;42.678;23.360;2022-09-29T03:17:05;4.13;;;2.23;;
18606;SDS011;9433;42.678;23.360;2022-09-29T03:19:31;2.20;;;2.00;;
18606;SDS011;9433;42.678;23.360;2022-09-29T03:21:58;5.20;;;2.40;;
18606;SDS011;9433;42.678;23.360;2022-09-29T03:24:26;3.87;;;2.27;;
18606;SDS011;9433;42.678;23.360;2022-09-29T03:26:53;2.80;;;2.30;;
18606;SDS011;9433;42.678;23.360;2022-09-29T03:29:20;2.43;;;2.17;;
18606;SDS011;9433;42.678;23.360;2022-09-29T03:31:47;2.73;;;2.40;;
18606;SDS011;9433;42.678;23.360;2022-09-29T03:34:13;2.67;;;2.27;;
18606;SDS011;9433;42.678;23.360;2022-09-29T03:36:40;2.33;;;2.07;;
18606;SDS011;9433;42.678;23.360;2022-09-29T03:39:07;2.80;;;2.30;;
18606;SDS011;9433;42.678;23.360;2022-09-29T03:41:35;4.37;;;2.30;;
18606;SDS011;9433;42.678;23.360;2022-09-29T03:44:02;2.83;;;2.40;;
18606;SDS011;9433;42.678;23.360;2022-09-29T03:46:29;4.83;;;2.30;;
18606;SDS011;9433;42.678;23.360;2022-09-29T03:48:56;2.17;;;1.97;;
18606;SDS011;9433;42.678;23.360;2022-09-29T03:51:22;3.33;;;2.50;;
18606;SDS011;9433;42.678;23.360;2022-09-29T03:53:49;3.03;;;2.37;;
18606;SDS011;9433;42.678;23.360;2022-09-29T03:56:16;3.30;;;2.67;;
18606;SDS011;9433;42.678;23.360;2022-09-29T03:58:44;5.10;;;2.50;;
18606;SDS011;9433;42.678;23.360;2022-09-29T04:01:11;2.90;;;2.50;;
18606;SDS011;9433;42.678;23.360;2022-09-29T04:03:37;3.13;;;2.80;;
18606;SDS011;9433;42.678;23.360;2022-09-29T04:06:04;7.67;;;3.00;;
18606;SDS011;9433;42.678;23.360;2022-09-29T04:08:31;3.10;;;2.30;;
18606;SDS011;9433;42.678;23.360;2022-09-29T04:11:00;3.10;;;2.80;;
18606;SDS011;9433;42.678;23.360;2022-09-29T04:13:27;3.07;;;2.40;;
18606;SDS011;9433;42.678;23.360;2022-09-29T04:15:57;4.60;;;2.40;;
18606;SDS011;9433;42.678;23.360;2022-09-29T04:18:24;3.90;;;2.60;;
18606;SDS011;9433;42.678;23.360;2022-09-29T04:20:51;4.03;;;2.60;;
18606;SDS011;9433;42.678;23.360;2022-09-29T04:23:18;3.00;;;2.50;;
18606;SDS011;9433;42.678;23.360;2022-09-29T04:25:45;6.03;;;2.87;;
18606;SDS011;9433;42.678;23.360;2022-09-29T04:28:12;4.30;;;3.10;;
18606;SDS011;9433;42.678;23.360;2022-09-29T04:30:39;6.20;;;3.43;;
18606;SDS011;9433;42.678;23.360;2022-09-29T04:33:07;5.50;;;2.70;;
18606;SDS011;9433;42.678;23.360;2022-09-29T04:35:34;3.13;;;2.83;;
18606;SDS011;9433;42.678;23.360;2022-09-29T04:38:00;4.00;;;2.60;;
18606;SDS011;9433;42.678;23.360;2022-09-29T04:40:27;3.57;;;2.63;;
18606;SDS011;9433;42.678;23.360;2022-09-29T04:42:54;4.13;;;2.67;;
18606;SDS011;9433;42.678;23.360;2022-09-29T04:45:21;4.23;;;2.77;;
18606;SDS011;9433;42.678;23.360;2022-09-29T04:47:47;3.27;;;2.57;;
18606;SDS011;9433;42.678;23.360;2022-09-29T04:50:15;4.17;;;2.53;;
18606;SDS011;9433;42.678;23.360;2022-09-29T04:52:42;3.73;;;2.60;;
18606;SDS011;9433;42.678;23.360;2022-09-29T04:55:09;3.77;;;2.37;;
18606;SDS011;9433;42.678;23.360;2022-09-29T04:57:37;3.97;;;2.10;;
18606;SDS011;9433;42.678;23.360;2022-09-29T05:00:05;5.00;;;2.57;;
18606;SDS011;9433;42.678;23.360;2022-09-29T05:02:32;4.50;;;2.60;;
18606;SDS011;9433;42.678;23.360;2022-09-29T05:04:59;4.73;;;3.00;;
18606;SDS011;9433;42.678;23.360;2022-09-29T05:07:27;4.07;;;2.40;;
18606;SDS011;9433;42.678;23.360;2022-09-29T05:09:54;6.37;;;2.50;;
18606;SDS011;9433;42.678;23.360;2022-09-29T05:12:21;2.90;;;2.50;;
18606;SDS011;9433;42.678;23.360;2022-09-29T05:14:48;3.40;;;2.40;;
18606;SDS011;9433;42.678;23.360;2022-09-29T05:17:14;2.47;;;1.83;;
18606;SDS011;9433;42.678;23.360;2022-09-29T05:19:41;3.73;;;2.20;;
18606;SDS011;9433;42.678;23.360;2022-09-29T05:22:08;6.57;;;2.80;;
18606;SDS011;9433;42.678;23.360;2022-09-29T05:24:36;3.40;;;2.67;;
18606;SDS011;9433;42.678;23.360;2022-09-29T05:27:03;3.03;;;2.57;;
18606;SDS011;9433;42.678;23.360;2022-09-29T05:29:30;4.37;;;3.03;;
18606;SDS011;9433;42.678;23.360;2022-09-29T05:31:56;8.27;;;3.23;;
18606;SDS011;9433;42.678;23.360;2022-09-29T05:34:23;4.13;;;3.40;;
18606;SDS011;9433;42.678;23.360;2022-09-29T05:36:50;3.10;;;2.50;;
18606;SDS011;9433;42.678;23.360;2022-09-29T05:39:17;5.70;;;2.97;;
18606;SDS011;9433;42.678;23.360;2022-09-29T05:41:46;5.10;;;2.83;;
18606;SDS011;9433;42.678;23.360;2022-09-29T05:44:13;5.03;;;3.20;;
18606;SDS011;9433;42.678;23.360;2022-09-29T05:46:40;2.87;;;2.50;;
18606;SDS011;9433;42.678;23.360;2022-09-29T05:49:07;3.07;;;2.40;;
18606;SDS011;9433;42.678;23.360;2022-09-29T05:51:35;5.33;;;3.20;;
18606;SDS011;9433;42.678;23.360;2022-09-29T05:54:01;2.93;;;2.47;;
18606;SDS011;9433;42.678;23.360;2022-09-29T05:56:28;4.57;;;2.47;;
18606;SDS011;9433;42.678;23.360;2022-09-29T05:58:56;5.93;;;2.13;;
18606;SDS011;9433;42.678;23.360;2022-09-29T06:01:25;5.73;;;2.90;;
18606;SDS011;9433;42.678;23.360;2022-09-29T06:03:53;3.27;;;2.63;;
18606;SDS011;9433;42.678;23.360;2022-09-29T06:06:20;5.23;;;2.50;;
18606;SDS011;9433;42.678;23.360;2022-09-29T06:08:48;2.93;;;2.50;;
18606;SDS011;9433;42.678;23.360;2022-09-29T06:11:17;2.67;;;2.00;;
18606;SDS011;9433;42.678;23.360;2022-09-29T06:13:45;4.00;;;2.30;;
18606;SDS011;9433;42.678;23.360;2022-09-29T06:16:14;6.43;;;2.60;;
18606;SDS011;9433;42.678;23.360;2022-09-29T06:18:42;3.37;;;2.63;;
18606;SDS011;9433;42.678;23.360;2022-09-29T06:21:10;5.80;;;2.33;;
18606;SDS011;9433;42.678;23.360;2022-09-29T06:23:38;5.43;;;2.33;;
18606;SDS011;9433;42.678;23.360;2022-09-29T06:26:06;2.53;;;2.30;;
18606;SDS011;9433;42.678;23.360;2022-09-29T06:28:34;3.23;;;2.90;;
18606;SDS011;9433;42.678;23.360;2022-09-29T06:31:02;7.57;;;2.57;;
18606;SDS011;9433;42.678;23.360;2022-09-29T06:33:32;5.20;;;1.93;;
18606;SDS011;9433;42.678;23.360;2022-09-29T06:36:01;6.63;;;2.53;;
18606;SDS011;9433;42.678;23.360;2022-09-29T06:38:48;7.27;;;2.20;;
18606;SDS011;9433;42.678;23.360;2022-09-29T06:41:14;2.60;;;2.10;;
18606;SDS011;9433;42.678;23.360;2022-09-29T06:43:41;6.03;;;2.20;;
18606;SDS011;9433;42.678;23.360;2022-09-29T06:46:08;4.60;;;2.10;;
18606;SDS011;9433;42.678;23.360;2022-09-29T06:48:36;3.40;;;2.20;;
18606;SDS011;9433;42.678;23.360;2022-09-29T06:51:05;4.17;;;2.20;;
18606;SDS011;9433;42.678;23.360;2022-09-29T06:53:32;5.93;;;2.37;;
18606;SDS011;9433;42.678;23.360;2022-09-29T06:56:00;5.97;;;3.20;;
18606;SDS011;9433;42.678;23.360;2022-09-29T06:58:27;6.33;;;2.63;;
18606;SDS011;9433;42.678;23.360;2022-09-29T07:00:54;2.70;;;2.50;;
18606;SDS011;9433;42.678;23.360;2022-09-29T07:03:21;3.97;;;2.40;;
18606;SDS011;9433;42.678;23.360;2022-09-29T07:05:49;4.63;;;2.40;;
18606;SDS011;9433;42.678;23.360;2022-09-29T07:08:16;3.73;;;2.37;;
18606;SDS011;9433;42.678;23.360;2022-09-29T07:10:42;2.33;;;1.97;;
18606;SDS011;9433;42.678;23.360;2022-09-29T07:13:12;9.00;;;2.83;;
18606;SDS011;9433;42.678;23.360;2022-09-29T07:15:39;4.83;;;2.77;;
18606;SDS011;9433;42.678;23.360;2022-09-29T07:18:06;4.83;;;3.07;;
18606;SDS011;9433;42.678;23.360;2022-09-29T07:20:34;5.00;;;1.90;;
18606;SDS011;9433;42.678;23.360;2022-09-29T07:23:02;5.50;;;2.23;;
18606;SDS011;9433;42.678;23.360;2022-09-29T07:25:32;4.33;;;2.27;;
18606;SDS011;9433;42.678;23.360;2022-09-29T07:28:00;3.73;;;2.00;;
18606;SDS011;9433;42.678;23.360;2022-09-29T07:30:27;2.97;;;2.60;;
18606;SDS011;9433;42.678;23.360;2022-09-29T07:32:55;4.43;;;2.07;;
18606;SDS011;9433;42.678;23.360;2022-09-29T07:35:22;2.60;;;2.10;;
18606;SDS011;9433;42.678;23.360;2022-09-29T07:37:52;5.17;;;2.40;;
18606;SDS011;9433;42.678;23.360;2022-09-29T07:40:21;5.63;;;2.20;;
18606;SDS011;9433;42.678;23.360;2022-09-29T07:42:49;4.97;;;2.57;;
18606;SDS011;9433;42.678;23.360;2022-09-29T07:45:16;3.90;;;3.00;;
18606;SDS011;9433;42.678;23.360;2022-09-29T07:47:43;3.87;;;2.67;;
18606;SDS011;9433;42.678;23.360;2022-09-29T07:50:10;8.07;;;3.00;;
18606;SDS011;9433;42.678;23.360;2022-09-29T07:52:37;4.23;;;2.93;;
18606;SDS011;9433;42.678;23.360;2022-09-29T07:55:04;7.93;;;3.37;;
18606;SDS011;9433;42.678;23.360;2022-09-29T07:57:33;5.90;;;1.87;;
18606;SDS011;9433;42.678;23.360;2022-09-29T08:00:00;3.27;;;2.27;;
18606;SDS011;9433;42.678;23.360;2022-09-29T08:02:27;4.10;;;2.00;;
18606;SDS011;9433;42.678;23.360;2022-09-29T08:04:53;3.73;;;2.13;;
18606;SDS011;9433;42.678;23.360;2022-09-29T08:07:20;2.40;;;1.70;;
18606;SDS011;9433;42.678;23.360;2022-09-29T08:09:47;5.53;;;1.67;;
18606;SDS011;9433;42.678;23.360;2022-09-29T08:12:14;4.07;;;1.97;;
18606;SDS011;9433;42.678;23.360;2022-09-29T08:14:42;3.37;;;1.77;;
18606;SDS011;9433;42.678;23.360;2022-09-29T08:17:09;2.10;;;1.77;;
18606;SDS011;9433;42.678;23.360;2022-09-29T08:19:35;5.13;;;2.13;;
18606;SDS011;9433;42.678;23.360;2022-09-29T08:22:02;2.00;;;1.90;;
18606;SDS011;9433;42.678;23.360;2022-09-29T08:24:29;4.80;;;4.30;;
18606;SDS011;9433;42.678;23.360;2022-09-29T08:26:56;5.40;;;2.30;;
18606;SDS011;9433;42.678;23.360;2022-09-29T08:29:24;3.97;;;1.67;;
18606;SDS011;9433;42.678;23.360;2022-09-29T08:31:52;5.53;;;1.87;;
18606;SDS011;9433;42.678;23.360;2022-09-29T08:34:20;4.23;;;2.13;;
18606;SDS011;9433;42.678;23.360;2022-09-29T08:36:47;2.37;;;1.80;;
18606;SDS011;9433;42.678;23.360;2022-09-29T08:39:14;2.40;;;1.67;;
18606;SDS011;9433;42.678;23.360;2022-09-29T08:41:52;1.60;;;1.50;;
18606;SDS011;9433;42.678;23.360;2022-09-29T08:44:25;6.10;;;1.60;;
18606;SDS011;9433;42.678;23.360;2022-09-29T08:46:59;6.27;;;1.60;;
18606;SDS011;9433;42.678;23.360;2022-09-29T08:49:30;1.67;;;1.50;;
18606;SDS011;9433;42.678;23.360;2022-09-29T08:52:05;2.20;;;1.60;;
18606;SDS011;9433;42.678;23.360;2022-09-29T08:54:38;3.00;;;1.50;;
18606;SDS011;9433;42.678;23.360;2022-09-29T08:57:08;5.80;;;1.43;;
18606;SDS011;9433;42.678;23.360;2022-09-29T08:59:40;2.57;;;1.87;;
18606;SDS011;9433;42.678;23.360;2022-09-29T09:02:17;1.90;;;1.70;;
18606;SDS011;9433;42.678;23.360;2022-09-29T09:05:05;4.90;;;1.90;;
18606;SDS011;9433;42.678;23.360;2022-09-29T09:07:43;2.90;;;1.70;;
18606;SDS011;9433;42.678;23.360;2022-09-29T09:10:22;3.83;;;1.30;;
18606;SDS011;9433;42.678;23.360;2022-09-29T09:13:02;2.87;;;1.20;;
18606;SDS011;9433;42.678;23.360;2022-09-29T09:15:42;3.60;;;1.87;;
18606;SDS011;9433;42.678;23.360;2022-09-29T09:18:38;1.80;;;1.53;;
18606;SDS011;9433;42.678;23.360;2022-09-29T09:21:16;2.53;;;1.42;;
18606;SDS011;9433;42.678;23.360;2022-09-29T09:23:50;2.75;;;1.20;;
18606;SDS011;9433;42.678;23.360;2022-09-29T09:26:21;2.65;;;1.10;;
18606;SDS011;9433;42.678;23.360;2022-09-29T09:28:57;3.38;;;1.25;;
18606;SDS011;9433;42.678;23.360;2022-09-29T09:31:29;2.83;;;1.38;;
18606;SDS011;9433;42.678;23.360;2022-09-29T09:34:03;1.73;;;1.30;;
18606;SDS011;9433;42.678;23.360;2022-09-29T09:36:34;1.35;;;1.05;;
18606;SDS011;9433;42.678;23.360;2022-09-29T09:39:05;1.52;;;1.23;;
18606;SDS011;9433;42.678;23.360;2022-09-29T09:41:38;1.35;;;1.23;;
18606;SDS011;9433;42.678;23.360;2022-09-29T09:44:10;1.27;;;1.17;;
18606;SDS011;9433;42.678;23.360;2022-09-29T09:46:43;1.52;;;1.20;;
18606;SDS011;9433;42.678;23.360;2022-09-29T09:49:17;1.63;;;1.00;;
18606;SDS011;9433;42.678;23.360;2022-09-29T09:51:52;1.85;;;1.23;;
18606;SDS011;9433;42.678;23.360;2022-09-29T09:54:24;4.03;;;1.10;;
18606;SDS011;9433;42.678;23.360;2022-09-29T10:00:06;2.40;;;1.20;;
18606;SDS011;9433;42.678;23.360;2022-09-29T10:02:37;0.80;;;0.80;;
18606;SDS011;9433;42.678;23.360;2022-09-29T10:05:11;2.08;;;1.13;;
18606;SDS011;9433;42.678;23.360;2022-09-29T10:07:39;0.98;;;0.82;;
18606;SDS011;9433;42.678;23.360;2022-09-29T10:10:13;2.38;;;1.40;;
18606;SDS011;9433;42.678;23.360;2022-09-29T10:12:42;2.05;;;1.10;;
18606;SDS011;9433;42.678;23.360;2022-09-29T10:15:16;1.30;;;1.10;;
18606;SDS011;9433;42.678;23.360;2022-09-29T10:17:47;1.42;;;1.00;;
18606;SDS011;9433;42.678;23.360;2022-09-29T10:20:31;1.48;;;1.27;;
18606;SDS011;9433;42.678;23.360;2022-09-29T10:23:17;4.07;;;1.38;;
18606;SDS011;9433;42.678;23.360;2022-09-29T10:26:00;1.70;;;1.25;;
18606;SDS011;9433;42.678;23.360;2022-09-29T10:28:39;1.92;;;1.13;;
18606;SDS011;9433;42.678;23.360;2022-09-29T10:33:59;1.45;;;1.10;;
18606;SDS011;9433;42.678;23.360;2022-09-29T10:36:31;0.95;;;0.90;;
18606;SDS011;9433;42.678;23.360;2022-09-29T10:38:59;2.10;;;1.27;;
18606;SDS011;9433;42.678;23.360;2022-09-29T10:41:26;1.65;;;1.10;;
18606;SDS011;9433;42.678;23.360;2022-09-29T10:43:52;1.10;;;0.88;;
18606;SDS011;9433;42.678;23.360;2022-09-29T10:49:14;1.85;;;1.40;;
18606;SDS011;9433;42.678;23.360;2022-09-29T10:51:50;1.95;;;1.10;;
18606;SDS011;9433;42.678;23.360;2022-09-29T10:54:20;1.65;;;1.20;;
18606;SDS011;9433;42.678;23.360;2022-09-29T10:56:50;2.40;;;1.23;;
18606;SDS011;9433;42.678;23.360;2022-09-29T10:59:18;1.15;;;1.05;;
18606;SDS011;9433;42.678;23.360;2022-09-29T11:01:48;1.52;;;1.20;;
18606;SDS011;9433;42.678;23.360;2022-09-29T11:04:18;1.00;;;1.00;;
18606;SDS011;9433;42.678;23.360;2022-09-29T11:06:49;5.30;;;1.30;;
18606;SDS011;9433;42.678;23.360;2022-09-29T11:09:26;1.95;;;1.40;;
18606;SDS011;9433;42.678;23.360;2022-09-29T11:11:55;1.85;;;1.10;;
18606;SDS011;9433;42.678;23.360;2022-09-29T11:14:24;1.77;;;1.35;;
18606;SDS011;9433;42.678;23.360;2022-09-29T11:16:57;1.88;;;1.75;;
18606;SDS011;9433;42.678;23.360;2022-09-29T11:19:25;3.17;;;1.15;;
18606;SDS011;9433;42.678;23.360;2022-09-29T11:31:07;1.25;;;1.10;;
18606;SDS011;9433;42.678;23.360;2022-09-29T11:33:49;0.90;;;0.90;;
18606;SDS011;9433;42.678;23.360;2022-09-29T11:36:31;2.33;;;1.38;;
18606;SDS011;9433;42.678;23.360;2022-09-29T11:39:17;0.90;;;0.90;;
18606;SDS011;9433;42.678;23.360;2022-09-29T11:41:59;2.70;;;1.40;;
18606;SDS011;9433;42.678;23.360;2022-09-29T11:44:42;2.53;;;1.40;;
18606;SDS011;9433;42.678;23.360;2022-09-29T11:47:35;3.95;;;1.48;;
18606;SDS011;9433;42.678;23.360;2022-09-29T11:50:21;3.17;;;1.40;;
18606;SDS011;9433;42.678;23.360;2022-09-29T11:53:03;3.72;;;1.35;;
18606;SDS011;9433;42.678;23.360;2022-09-29T11:58:38;2.25;;;1.42;;
18606;SDS011;9433;42.678;23.360;2022-09-29T12:01:19;2.53;;;0.98;;
18606;SDS011;9433;42.678;23.360;2022-09-29T12:07:02;1.33;;;1.23;;
18606;SDS011;9433;42.678;23.360;2022-09-29T12:12:44;2.97;;;1.23;;
18606;SDS011;9433;42.678;23.360;2022-09-29T12:15:22;0.98;;;0.98;;
18606;SDS011;9433;42.678;23.360;2022-09-29T12:17:58;2.47;;;1.30;;
18606;SDS011;9433;42.678;23.360;2022-09-29T12:20:31;1.73;;;1.35;;
18606;SDS011;9433;42.678;23.360;2022-09-29T12:23:01;0.95;;;0.95;;
18606;SDS011;9433;42.678;23.360;2022-09-29T12:25:33;1.33;;;1.13;;
18606;SDS011;9433;42.678;23.360;2022-09-29T12:28:06;1.13;;;1.00;;
18606;SDS011;9433;42.678;23.360;2022-09-29T12:30:41;3.55;;;1.00;;
18606;SDS011;9433;42.678;23.360;2022-09-29T12:33:13;1.00;;;0.93;;
18606;SDS011;9433;42.678;23.360;2022-09-29T12:35:46;0.60;;;0.60;;
18606;SDS011;9433;42.678;23.360;2022-09-29T12:38:18;1.40;;;0.65;;
18606;SDS011;9433;42.678;23.360;2022-09-29T12:40:53;1.95;;;0.73;;
18606;SDS011;9433;42.678;23.360;2022-09-29T12:43:31;1.42;;;0.90;;
18606;SDS011;9433;42.678;23.360;2022-09-29T12:46:09;1.00;;;0.73;;
18606;SDS011;9433;42.678;23.360;2022-09-29T12:48:45;1.17;;;0.80;;
18606;SDS011;9433;42.678;23.360;2022-09-29T12:51:19;2.85;;;1.02;;
18606;SDS011;9433;42.678;23.360;2022-09-29T12:53:59;0.80;;;0.73;;
18606;SDS011;9433;42.678;23.360;2022-09-29T12:56:32;1.20;;;0.80;;
18606;SDS011;9433;42.678;23.360;2022-09-29T12:59:05;0.70;;;0.70;;
18606;SDS011;9433;42.678;23.360;2022-09-29T13:01:37;0.93;;;0.82;;
18606;SDS011;9433;42.678;23.360;2022-09-29T13:04:13;1.83;;;0.90;;
18606;SDS011;9433;42.678;23.360;2022-09-29T13:07:03;1.00;;;0.90;;
18606;SDS011;9433;42.678;23.360;2022-09-29T13:09:58;1.38;;;0.85;;
18606;SDS011;9433;42.678;23.360;2022-09-29T13:15:49;0.82;;;0.80;;
18606;SDS011;9433;42.678;23.360;2022-09-29T13:18:31;0.98;;;0.68;;
18606;SDS011;9433;42.678;23.360;2022-09-29T13:21:14;1.27;;;1.17;;
18606;SDS011;9433;42.678;23.360;2022-09-29T13:23:51;2.78;;;1.00;;
18606;SDS011;9433;42.678;23.360;2022-09-29T13:26:38;2.05;;;0.98;;
18606;SDS011;9433;42.678;23.360;2022-09-29T13:29:15;1.15;;;1.05;;
18606;SDS011;9433;42.678;23.360;2022-09-29T13:31:47;0.52;;;0.52;;
18606;SDS011;9433;42.678;23.360;2022-09-29T13:34:23;2.65;;;0.90;;
18606;SDS011;9433;42.678;23.360;2022-09-29T13:37:03;0.95;;;0.73;;
18606;SDS011;9433;42.678;23.360;2022-09-29T13:39:31;0.77;;;0.70;;
18606;SDS011;9433;42.678;23.360;2022-09-29T13:42:24;2.38;;;0.82;;
18606;SDS011;9433;42.678;23.360;2022-09-29T13:48:00;1.40;;;1.20;;
18606;SDS011;9433;42.678;23.360;2022-09-29T13:50:41;0.90;;;0.73;;
18606;SDS011;9433;42.678;23.360;2022-09-29T13:53:25;1.00;;;0.90;;
18606;SDS011;9433;42.678;23.360;2022-09-29T13:55:55;2.60;;;0.80;;
18606;SDS011;9433;42.678;23.360;2022-09-29T13:58:34;1.27;;;0.95;;
18606;SDS011;9433;42.678;23.360;2022-09-29T14:01:03;4.43;;;1.55;;
18606;SDS011;9433;42.678;23.360;2022-09-29T14:03:34;1.33;;;1.23;;
18606;SDS011;9433;42.678;23.360;2022-09-29T14:06:06;2.35;;;1.05;;
18606;SDS011;9433;42.678;23.360;2022-09-29T14:08:39;1.30;;;1.20;;
18606;SDS011;9433;42.678;23.360;2022-09-29T14:11:11;1.25;;;1.15;;
18606;SDS011;9433;42.678;23.360;2022-09-29T14:13:45;2.35;;;1.10;;
18606;SDS011;9433;42.678;23.360;2022-09-29T14:16:27;1.35;;;1.17;;
18606;SDS011;9433;42.678;23.360;2022-09-29T14:19:03;2.58;;;1.60;;
18606;SDS011;9433;42.678;23.360;2022-09-29T14:21:49;1.33;;;1.23;;
18606;SDS011;9433;42.678;23.360;2022-09-29T14:29:55;2.45;;;1.75;;
18606;SDS011;9433;42.678;23.360;2022-09-29T14:32:31;1.50;;;1.40;;
18606;SDS011;9433;42.678;23.360;2022-09-29T14:35:12;1.60;;;1.50;;
18606;SDS011;9433;42.678;23.360;2022-09-29T14:37:43;2.97;;;1.43;;
18606;SDS011;9433;42.678;23.360;2022-09-29T14:40:13;1.20;;;1.10;;
18606;SDS011;9433;42.678;23.360;2022-09-29T14:43:01;2.60;;;1.77;;
18606;SDS011;9433;42.678;23.360;2022-09-29T14:45:55;3.13;;;1.83;;
18606;SDS011;9433;42.678;23.360;2022-09-29T14:49:02;2.20;;;1.80;;
18606;SDS011;9433;42.678;23.360;2022-09-29T14:52:11;1.83;;;1.60;;
18606;SDS011;9433;42.678;23.360;2022-09-29T14:54:48;4.57;;;1.80;;
18606;SDS011;9433;42.678;23.360;2022-09-29T14:57:29;3.00;;;2.30;;
18606;SDS011;9433;42.678;23.360;2022-09-29T15:00:11;5.13;;;2.13;;
18606;SDS011;9433;42.678;23.360;2022-09-29T15:02:42;4.27;;;2.67;;
18606;SDS011;9433;42.678;23.360;2022-09-29T15:05:12;2.40;;;2.00;;
18606;SDS011;9433;42.678;23.360;2022-09-29T15:07:50;2.73;;;2.20;;
18606;SDS011;9433;42.678;23.360;2022-09-29T15:10:22;3.80;;;2.03;;
18606;SDS011;9433;42.678;23.360;2022-09-29T15:12:51;2.60;;;2.07;;
18606;SDS011;9433;42.678;23.360;2022-09-29T15:15:28;2.03;;;1.83;;
18606;SDS011;9433;42.678;23.360;2022-09-29T15:18:01;5.50;;;2.77;;
18606;SDS011;9433;42.678;23.360;2022-09-29T15:20:42;3.83;;;2.23;;
18606;SDS011;9433;42.678;23.360;2022-09-29T15:26:20;5.37;;;3.13;;
18606;SDS011;9433;42.678;23.360;2022-09-29T15:28:47;3.97;;;2.97;;
18606;SDS011;9433;42.678;23.360;2022-09-29T15:31:15;5.73;;;2.33;;
18606;SDS011;9433;42.678;23.360;2022-09-29T15:33:42;5.87;;;3.13;;
18606;SDS011;9433;42.678;23.360;2022-09-29T15:36:14;5.27;;;3.87;;
18606;SDS011;9433;42.678;23.360;2022-09-29T15:38:45;5.20;;;3.10;;
18606;SDS011;9433;42.678;23.360;2022-09-29T15:41:16;7.33;;;3.53;;
18606;SDS011;9433;42.678;23.360;2022-09-29T15:43:51;4.10;;;3.30;;
18606;SDS011;9433;42.678;23.360;2022-09-29T15:46:23;8.10;;;3.37;;
18606;SDS011;9433;42.678;23.360;2022-09-29T15:49:04;4.70;;;3.17;;
18606;SDS011;9433;42.678;23.360;2022-09-29T15:51:36;5.07;;;2.97;;
18606;SDS011;9433;42.678;23.360;2022-09-29T15:54:06;3.73;;;2.93;;
18606;SDS011;9433;42.678;23.360;2022-09-29T15:56:34;4.83;;;2.70;;
18606;SDS011;9433;42.678;23.360;2022-09-29T15:59:37;3.40;;;3.10;;
18606;SDS011;9433;42.678;23.360;2022-09-29T16:02:08;6.87;;;3.57;;
18606;SDS011;9433;42.678;23.360;2022-09-29T16:04:41;7.30;;;3.30;;